Time;durP1;ratioP1;P1;durP2;ratioP2;P2;SDS_P1;SDS_P2;PMS_P1;PMS_P2;Temp;Humidity;BMP_temperature;BMP_pressure;BME280_temperature;BME280_humidity;BME280_pressure;Samples;Min_cycle;Max_cycle;Signal;HPM_P1;HPM_P2
2022/09/19 00:01:23;;;;;;;1.50;1.30;;;;;;;;;;4992021;28;20238;-81
2022/09/19 00:03:53;;;;;;;1.97;1.67;;;;;;;;;;4991928;28;20203;-82
2022/09/19 00:06:20;;;;;;;2.60;1.67;;;;;;;;;;5010504;28;20187;-81
2022/09/19 00:08:47;;;;;;;1.50;1.40;;;;;;;;;;4995069;28;20187;-82
2022/09/19 00:11:14;;;;;;;1.60;1.40;;;;;;;;;;5011812;28;20684;-81
2022/09/19 00:13:45;;;;;;;1.60;1.50;;;;;;;;;;5011365;28;20682;-81
2022/09/19 00:16:18;;;;;;;3.50;1.70;;;;;;;;;;5011744;28;20649;-82
2022/09/19 00:18:44;;;;;;;2.57;1.63;;;;;;;;;;5011084;28;20203;-83
2022/09/19 00:21:10;;;;;;;3.43;1.63;;;;;;;;;;4995244;28;20657;-82
2022/09/19 00:26:21;;;;;;;2.33;1.90;;;;;;;;;;4996390;28;20198;-81
2022/09/19 00:28:47;;;;;;;3.87;1.70;;;;;;;;;;4995076;28;20177;-81
2022/09/19 00:31:17;;;;;;;4.03;1.80;;;;;;;;;;5011135;28;20195;-81
2022/09/19 00:33:44;;;;;;;2.57;1.67;;;;;;;;;;5010911;28;20625;-82
2022/09/19 00:36:10;;;;;;;5.13;1.87;;;;;;;;;;5011521;28;20690;-82
2022/09/19 00:38:36;;;;;;;2.50;1.77;;;;;;;;;;4994951;28;20238;-81
2022/09/19 00:41:02;;;;;;;3.00;1.93;;;;;;;;;;5010724;28;20180;-81
2022/09/19 00:44:03;;;;;;;4.37;2.00;;;;;;;;;;4994764;28;20210;-82
2022/09/19 00:46:30;;;;;;;2.73;1.90;;;;;;;;;;4954788;28;20181;-81
2022/09/19 00:49:08;;;;;;;2.57;1.70;;;;;;;;;;4982748;28;20230;-81
2022/09/19 00:51:45;;;;;;;3.00;2.00;;;;;;;;;;5011071;28;20592;-82
2022/09/19 00:54:13;;;;;;;3.30;2.03;;;;;;;;;;5010788;28;20558;-82
2022/09/19 00:56:45;;;;;;;3.53;2.50;;;;;;;;;;4994558;28;20227;-82
2022/09/19 00:59:12;;;;;;;2.27;1.60;;;;;;;;;;5010804;28;20262;-81
2022/09/19 01:01:38;;;;;;;3.07;1.70;;;;;;;;;;5010744;28;20266;-82
2022/09/19 01:04:14;;;;;;;2.20;1.70;;;;;;;;;;5010635;28;20230;-82
2022/09/19 01:06:49;;;;;;;2.17;1.70;;;;;;;;;;5010642;28;20180;-81
2022/09/19 01:09:38;;;;;;;2.67;1.70;;;;;;;;;;4995394;28;20585;-81
2022/09/19 01:12:19;;;;;;;2.70;1.70;;;;;;;;;;5010506;28;20216;-82
2022/09/19 01:14:46;;;;;;;2.67;1.60;;;;;;;;;;5010676;28;20176;-82
2022/09/19 01:17:18;;;;;;;4.07;1.80;;;;;;;;;;5010510;28;20184;-82
2022/09/19 01:19:44;;;;;;;2.50;1.67;;;;;;;;;;5009841;28;20262;-81
2022/09/19 01:22:13;;;;;;;4.23;1.97;;;;;;;;;;5010193;28;20204;-82
2022/09/19 01:24:40;;;;;;;2.20;1.70;;;;;;;;;;5010584;28;20234;-81
2022/09/19 01:27:17;;;;;;;2.47;1.77;;;;;;;;;;5010768;28;20183;-82
2022/09/19 01:29:50;;;;;;;2.53;1.73;;;;;;;;;;5009959;28;20182;-81
2022/09/19 01:32:18;;;;;;;2.10;1.70;;;;;;;;;;5009966;28;20290;-82
2022/09/19 01:34:49;;;;;;;2.80;1.90;;;;;;;;;;5010244;28;20207;-82
2022/09/19 01:37:17;;;;;;;3.03;2.20;;;;;;;;;;5010331;28;20669;-82
2022/09/19 01:39:46;;;;;;;2.00;1.80;;;;;;;;;;5009866;28;20644;-82
2022/09/19 01:42:13;;;;;;;3.20;2.00;;;;;;;;;;4993616;28;20230;-82
2022/09/19 01:44:39;;;;;;;3.53;1.87;;;;;;;;;;5010218;28;20187;-82
2022/09/19 01:47:13;;;;;;;2.03;1.70;;;;;;;;;;4977686;28;20183;-81
2022/09/19 01:49:42;;;;;;;3.00;1.90;;;;;;;;;;5009786;28;20181;-81
2022/09/19 01:52:27;;;;;;;3.33;1.80;;;;;;;;;;5009544;28;20228;-82
2022/09/19 01:55:07;;;;;;;2.60;1.77;;;;;;;;;;5009710;28;20223;-82
2022/09/19 01:57:38;;;;;;;3.03;1.80;;;;;;;;;;5009881;28;20171;-81
2022/09/19 02:00:11;;;;;;;2.13;1.70;;;;;;;;;;5009719;28;20190;-82
2022/09/19 02:02:47;;;;;;;2.70;1.97;;;;;;;;;;5009404;28;20201;-82
2022/09/19 02:05:16;;;;;;;3.00;1.90;;;;;;;;;;5009465;28;20716;-82
2022/09/19 02:07:44;;;;;;;4.13;1.80;;;;;;;;;;4993451;28;20287;-81
2022/09/19 02:10:22;;;;;;;3.00;1.63;;;;;;;;;;5009242;28;20176;-81
2022/09/19 02:12:52;;;;;;;2.70;1.60;;;;;;;;;;5009199;28;20209;-82
2022/09/19 02:15:20;;;;;;;2.17;1.50;;;;;;;;;;5009303;28;20204;-81
2022/09/19 02:17:51;;;;;;;5.00;1.73;;;;;;;;;;4993130;28;20207;-81
2022/09/19 02:20:37;;;;;;;3.80;1.80;;;;;;;;;;5009070;28;20624;-82
2022/09/19 02:23:05;;;;;;;4.10;1.97;;;;;;;;;;4994033;28;20323;-81
2022/09/19 02:25:34;;;;;;;2.47;1.60;;;;;;;;;;4992863;28;20212;-82
2022/09/19 02:28:03;;;;;;;2.97;1.77;;;;;;;;;;5008821;28;20203;-82
2022/09/19 02:30:29;;;;;;;3.17;1.70;;;;;;;;;;5009078;28;20644;-81
2022/09/19 02:32:55;;;;;;;1.80;1.50;;;;;;;;;;5009316;28;20205;-82
2022/09/19 02:35:34;;;;;;;3.87;1.80;;;;;;;;;;4992855;28;20638;-82
2022/09/19 02:38:03;;;;;;;3.57;1.67;;;;;;;;;;5008910;28;20204;-81
2022/09/19 02:40:39;;;;;;;5.87;1.63;;;;;;;;;;5009081;28;20176;-82
2022/09/19 02:43:25;;;;;;;3.13;1.60;;;;;;;;;;5008738;28;20219;-82
2022/09/19 02:45:54;;;;;;;2.50;1.60;;;;;;;;;;4972124;28;20215;-82
2022/09/19 02:48:38;;;;;;;1.90;1.60;;;;;;;;;;5008705;28;20207;-82
2022/09/19 02:51:11;;;;;;;4.13;1.70;;;;;;;;;;5008334;28;20234;-81
2022/09/19 02:53:40;;;;;;;2.13;1.60;;;;;;;;;;5008850;28;20206;-82
2022/09/19 02:56:06;;;;;;;2.10;1.60;;;;;;;;;;5009008;28;20191;-82
2022/09/19 02:58:38;;;;;;;3.93;1.60;;;;;;;;;;4992258;28;20583;-82
2022/09/19 03:01:06;;;;;;;2.77;1.77;;;;;;;;;;5008492;28;20291;-81
2022/09/19 03:06:26;;;;;;;4.27;1.80;;;;;;;;;;4993872;28;20211;-82
2022/09/19 03:08:54;;;;;;;3.77;1.50;;;;;;;;;;5008869;28;20188;-82
2022/09/19 03:11:22;;;;;;;2.30;1.80;;;;;;;;;;5008916;28;20181;-83
2022/09/19 03:13:48;;;;;;;3.27;1.63;;;;;;;;;;4992472;28;20223;-82
2022/09/19 03:16:20;;;;;;;2.40;1.47;;;;;;;;;;4992309;28;20215;-83
2022/09/19 03:18:46;;;;;;;3.30;1.80;;;;;;;;;;4992472;28;20260;-82
2022/09/19 03:21:13;;;;;;;2.37;1.73;;;;;;;;;;5008617;28;20182;-82
2022/09/19 03:23:41;;;;;;;1.90;1.70;;;;;;;;;;4993584;28;20197;-81
2022/09/19 03:26:09;;;;;;;2.20;1.53;;;;;;;;;;5008356;28;20543;-82
2022/09/19 03:28:35;;;;;;;3.50;1.70;;;;;;;;;;5008472;28;20268;-82
2022/09/19 03:31:01;;;;;;;2.33;1.70;;;;;;;;;;4991958;28;20236;-82
2022/09/19 03:33:27;;;;;;;2.97;1.60;;;;;;;;;;4992218;28;20641;-82
2022/09/19 03:35:57;;;;;;;1.70;1.40;;;;;;;;;;4991980;28;20182;-82
2022/09/19 03:38:24;;;;;;;3.00;1.40;;;;;;;;;;5008646;28;20202;-82
2022/09/19 03:40:50;;;;;;;3.63;1.80;;;;;;;;;;5009526;28;20556;-82
2022/09/19 03:43:17;;;;;;;3.03;1.70;;;;;;;;;;5012239;28;20203;-82
2022/09/19 03:45:43;;;;;;;2.73;1.67;;;;;;;;;;4995911;28;20209;-82
2022/09/19 03:48:08;;;;;;;1.80;1.57;;;;;;;;;;4995700;28;20217;-82
2022/09/19 03:50:34;;;;;;;2.43;1.67;;;;;;;;;;4995335;28;20205;-82
2022/09/19 03:53:01;;;;;;;2.37;1.53;;;;;;;;;;4995489;28;20202;-81
2022/09/19 03:55:27;;;;;;;2.37;1.27;;;;;;;;;;4995630;28;20210;-82
2022/09/19 03:57:53;;;;;;;1.77;1.50;;;;;;;;;;4995524;28;20643;-82
2022/09/19 04:00:19;;;;;;;2.63;1.63;;;;;;;;;;5011659;28;20182;-82
2022/09/19 04:02:45;;;;;;;2.40;1.40;;;;;;;;;;5011776;28;20244;-82
2022/09/19 04:05:13;;;;;;;3.20;1.73;;;;;;;;;;4995543;28;20250;-83
2022/09/19 04:07:39;;;;;;;3.13;1.83;;;;;;;;;;4995462;28;20181;-81
2022/09/19 04:10:08;;;;;;;2.87;1.70;;;;;;;;;;5011753;28;20176;-82
2022/09/19 04:12:34;;;;;;;3.33;1.90;;;;;;;;;;4995352;28;20221;-82
2022/09/19 04:15:00;;;;;;;4.03;1.63;;;;;;;;;;5011536;28;20280;-82
2022/09/19 04:17:27;;;;;;;2.40;1.90;;;;;;;;;;5011675;28;20583;-82
2022/09/19 04:19:54;;;;;;;2.63;1.50;;;;;;;;;;4995030;28;20215;-82
2022/09/19 04:22:21;;;;;;;3.47;1.47;;;;;;;;;;5011285;28;20199;-82
2022/09/19 04:24:48;;;;;;;3.33;1.43;;;;;;;;;;4995237;28;20200;-83
2022/09/19 04:27:14;;;;;;;3.57;1.50;;;;;;;;;;5011066;28;20201;-82
2022/09/19 04:29:43;;;;;;;3.77;1.63;;;;;;;;;;5010984;28;20271;-82
2022/09/19 04:32:09;;;;;;;3.63;1.43;;;;;;;;;;5011339;28;20245;-82
2022/09/19 04:34:35;;;;;;;1.77;1.40;;;;;;;;;;4995013;28;20189;-82
2022/09/19 04:37:06;;;;;;;3.17;1.47;;;;;;;;;;4995024;28;20183;-81
2022/09/19 04:39:32;;;;;;;4.30;1.80;;;;;;;;;;5010757;28;20211;-82
2022/09/19 04:41:59;;;;;;;3.30;1.50;;;;;;;;;;5010678;28;20207;-82
2022/09/19 04:44:29;;;;;;;2.37;1.50;;;;;;;;;;5010856;28;20529;-82
2022/09/19 04:46:55;;;;;;;2.43;1.37;;;;;;;;;;4995003;28;20189;-83
2022/09/19 04:49:21;;;;;;;4.17;1.70;;;;;;;;;;5010445;28;20189;-82
2022/09/19 04:51:47;;;;;;;3.83;1.77;;;;;;;;;;5010470;28;20260;-82
2022/09/19 04:54:16;;;;;;;5.73;1.43;;;;;;;;;;5010904;28;20212;-82
2022/09/19 04:56:44;;;;;;;3.60;1.40;;;;;;;;;;5011112;28;20173;-82
2022/09/19 04:59:10;;;;;;;3.13;1.30;;;;;;;;;;4994260;28;20692;-82
2022/09/19 05:01:37;;;;;;;2.53;1.40;;;;;;;;;;5009964;28;20232;-83
2022/09/19 05:04:04;;;;;;;3.57;1.50;;;;;;;;;;5009924;28;20232;-82
2022/09/19 05:06:30;;;;;;;1.53;1.23;;;;;;;;;;5010872;28;20183;-82
2022/09/19 05:08:57;;;;;;;4.13;1.80;;;;;;;;;;4994046;28;20183;-80
2022/09/19 05:11:23;;;;;;;2.70;1.43;;;;;;;;;;4994370;28;20191;-80
2022/09/19 05:13:51;;;;;;;4.43;1.50;;;;;;;;;;5019511;22;20310;-80
2022/09/19 05:16:18;;;;;;;3.70;1.60;;;;;;;;;;4993910;28;20591;-80
2022/09/19 05:18:45;;;;;;;2.40;1.30;;;;;;;;;;4993601;28;20206;-80
2022/09/19 05:21:12;;;;;;;3.13;1.87;;;;;;;;;;4994136;28;20178;-80
2022/09/19 05:23:39;;;;;;;3.17;1.40;;;;;;;;;;4977650;28;20205;-80
2022/09/19 05:26:09;;;;;;;2.83;1.33;;;;;;;;;;4993958;28;20190;-80
2022/09/19 05:28:35;;;;;;;4.37;1.50;;;;;;;;;;4994954;28;20179;-80
2022/09/19 05:31:05;;;;;;;2.70;1.40;;;;;;;;;;4977343;28;20334;-80
2022/09/19 05:33:32;;;;;;;2.37;1.40;;;;;;;;;;4994762;28;20234;-80
2022/09/19 05:36:00;;;;;;;3.77;1.40;;;;;;;;;;4993334;28;20193;-80
2022/09/19 05:38:26;;;;;;;3.10;1.53;;;;;;;;;;4993414;28;20210;-82
2022/09/19 05:40:53;;;;;;;2.10;1.53;;;;;;;;;;4977034;28;20199;-80
2022/09/19 05:43:19;;;;;;;2.77;2.33;;;;;;;;;;4994783;28;20209;-80
2022/09/19 05:45:46;;;;;;;3.60;1.53;;;;;;;;;;4977508;28;20178;-80
2022/09/19 05:48:13;;;;;;;4.47;1.60;;;;;;;;;;4993298;28;20221;-79
2022/09/19 05:50:39;;;;;;;2.47;1.70;;;;;;;;;;4994009;28;20242;-79
2022/09/19 05:55:50;;;;;;;2.07;1.57;;;;;;;;;;4993577;28;20218;-80
2022/09/19 05:58:17;;;;;;;3.23;1.23;;;;;;;;;;4976731;28;20266;-80
2022/09/19 06:00:43;;;;;;;1.47;1.33;;;;;;;;;;4993958;28;20185;-78
2022/09/19 06:03:10;;;;;;;2.80;1.40;;;;;;;;;;4992258;28;20245;-79
2022/09/19 06:05:41;;;;;;;3.63;1.60;;;;;;;;;;4993270;28;20234;-79
2022/09/19 06:08:08;;;;;;;2.87;1.50;;;;;;;;;;4977770;28;20183;-79
2022/09/19 06:10:35;;;;;;;3.50;1.47;;;;;;;;;;4977211;28;20191;-79
2022/09/19 06:13:01;;;;;;;2.47;1.47;;;;;;;;;;4993544;28;20219;-80
2022/09/19 06:15:27;;;;;;;3.40;1.60;;;;;;;;;;4993274;28;20553;-79
2022/09/19 06:17:57;;;;;;;4.33;1.80;;;;;;;;;;4976862;28;20250;-79
2022/09/19 06:20:23;;;;;;;5.33;2.20;;;;;;;;;;4992921;28;20178;-79
2022/09/19 06:22:50;;;;;;;3.97;1.60;;;;;;;;;;4976932;28;20199;-79
2022/09/19 06:25:16;;;;;;;4.53;2.20;;;;;;;;;;4993559;28;20262;-79
2022/09/19 06:27:44;;;;;;;3.40;1.70;;;;;;;;;;4993411;28;20561;-79
2022/09/19 06:30:11;;;;;;;4.17;1.77;;;;;;;;;;4977056;28;20220;-79
2022/09/19 06:32:40;;;;;;;4.23;2.00;;;;;;;;;;4977007;28;20223;-79
2022/09/19 06:35:06;;;;;;;5.00;2.00;;;;;;;;;;4992998;28;20182;-79
2022/09/19 06:37:32;;;;;;;3.50;2.00;;;;;;;;;;4976681;28;20187;-79
2022/09/19 06:39:58;;;;;;;4.90;2.13;;;;;;;;;;4976400;28;20218;-79
2022/09/19 06:42:24;;;;;;;4.47;2.57;;;;;;;;;;4976482;28;20231;-79
2022/09/19 06:44:50;;;;;;;2.87;2.07;;;;;;;;;;4976638;28;20180;-79
2022/09/19 06:47:16;;;;;;;4.93;2.40;;;;;;;;;;4992564;28;20179;-79
2022/09/19 06:49:42;;;;;;;6.80;2.37;;;;;;;;;;4992197;28;20218;-80
2022/09/19 06:52:08;;;;;;;3.73;1.90;;;;;;;;;;4994152;28;20215;-80
2022/09/19 06:54:34;;;;;;;3.90;2.10;;;;;;;;;;4976778;28;20658;-80
2022/09/19 06:57:01;;;;;;;5.73;2.00;;;;;;;;;;4976612;28;20191;-80
2022/09/19 06:59:27;;;;;;;4.50;1.87;;;;;;;;;;4992398;28;20604;-79
2022/09/19 07:01:53;;;;;;;5.73;2.00;;;;;;;;;;4975501;28;20188;-79
2022/09/19 07:04:20;;;;;;;4.40;2.00;;;;;;;;;;4975943;28;20196;-79
2022/09/19 07:06:46;;;;;;;3.07;1.90;;;;;;;;;;4976109;28;20271;-79
2022/09/19 07:09:13;;;;;;;5.00;2.10;;;;;;;;;;4975363;28;20218;-79
2022/09/19 07:11:39;;;;;;;4.27;2.23;;;;;;;;;;4992405;28;20180;-79
2022/09/19 07:14:05;;;;;;;4.37;1.80;;;;;;;;;;4976344;28;20288;-79
2022/09/19 07:16:31;;;;;;;5.20;2.40;;;;;;;;;;4979920;28;20555;-79
2022/09/19 07:19:01;;;;;;;2.33;1.90;;;;;;;;;;4979637;28;20245;-84
2022/09/19 07:21:27;;;;;;;3.30;2.00;;;;;;;;;;4980331;28;20176;-79
2022/09/19 07:23:54;;;;;;;3.37;2.20;;;;;;;;;;4979796;28;20297;-79
2022/09/19 07:26:21;;;;;;;5.30;2.20;;;;;;;;;;4980167;28;20250;-79
2022/09/19 07:28:47;;;;;;;4.90;2.23;;;;;;;;;;4996090;28;20241;-79
2022/09/19 07:31:13;;;;;;;5.50;2.40;;;;;;;;;;4995717;28;20182;-79
2022/09/19 07:33:39;;;;;;;4.90;1.90;;;;;;;;;;4996560;28;20213;-79
2022/09/19 07:36:06;;;;;;;4.20;2.53;;;;;;;;;;4979743;28;20194;-79
2022/09/19 07:38:33;;;;;;;3.30;2.13;;;;;;;;;;4979761;28;20407;-79
2022/09/19 07:41:02;;;;;;;5.17;2.23;;;;;;;;;;4979858;28;20376;-79
2022/09/19 07:43:28;;;;;;;5.27;2.60;;;;;;;;;;4979380;28;20199;-79
2022/09/19 07:45:54;;;;;;;5.50;2.63;;;;;;;;;;4979542;28;20229;-79
2022/09/19 07:48:21;;;;;;;4.77;2.30;;;;;;;;;;4996764;28;20183;-79
2022/09/19 07:50:50;;;;;;;3.67;2.23;;;;;;;;;;4995503;28;20183;-79
2022/09/19 07:53:18;;;;;;;4.30;2.40;;;;;;;;;;4979583;28;20273;-79
2022/09/19 07:55:48;;;;;;;7.10;2.53;;;;;;;;;;4995569;28;20670;-79
2022/09/19 07:58:14;;;;;;;4.73;2.33;;;;;;;;;;4995675;28;20207;-79
2022/09/19 08:00:40;;;;;;;5.30;2.40;;;;;;;;;;4979149;28;20190;-79
2022/09/19 08:03:09;;;;;;;7.20;2.30;;;;;;;;;;4995227;28;20238;-79
2022/09/19 08:05:37;;;;;;;2.93;1.80;;;;;;;;;;4996720;28;20171;-79
2022/09/19 08:08:03;;;;;;;3.53;2.00;;;;;;;;;;4995213;28;20673;-79
2022/09/19 08:10:30;;;;;;;6.57;1.93;;;;;;;;;;4995083;28;20175;-79
2022/09/19 08:13:05;;;;;;;2.87;1.70;;;;;;;;;;4995243;28;20678;-79
2022/09/19 08:15:35;;;;;;;2.37;1.67;;;;;;;;;;4979378;28;20626;-79
2022/09/19 08:18:02;;;;;;;3.50;1.87;;;;;;;;;;4979487;28;20212;-79
2022/09/19 08:20:29;;;;;;;3.73;1.60;;;;;;;;;;4995342;28;20270;-79
2022/09/19 08:22:59;;;;;;;4.33;1.80;;;;;;;;;;4979391;28;20238;-79
2022/09/19 08:25:26;;;;;;;4.20;1.60;;;;;;;;;;4995141;28;20186;-79
2022/09/19 08:27:52;;;;;;;4.43;1.70;;;;;;;;;;4994614;28;20647;-79
2022/09/19 08:30:19;;;;;;;3.37;1.60;;;;;;;;;;4994811;28;20183;-79
2022/09/19 08:32:46;;;;;;;4.50;1.90;;;;;;;;;;4994792;28;20200;-79
2022/09/19 08:35:14;;;;;;;2.23;1.60;;;;;;;;;;4995245;28;20643;-79
2022/09/19 08:37:40;;;;;;;4.10;1.73;;;;;;;;;;4994957;28;20183;-79
2022/09/19 08:40:15;;;;;;;2.53;1.40;;;;;;;;;;4978401;28;20211;-79
2022/09/19 08:42:49;;;;;;;3.10;1.67;;;;;;;;;;4994688;28;20195;-79
2022/09/19 08:45:27;;;;;;;3.33;1.50;;;;;;;;;;4995005;28;20175;-79
2022/09/19 08:47:54;;;;;;;3.53;1.50;;;;;;;;;;4994436;28;20203;-80
2022/09/19 08:50:23;;;;;;;2.27;1.40;;;;;;;;;;4994671;28;20176;-79
2022/09/19 08:52:50;;;;;;;3.63;1.50;;;;;;;;;;4994733;28;20234;-79
2022/09/19 08:55:17;;;;;;;3.67;1.30;;;;;;;;;;4978549;28;20190;-79
2022/09/19 08:57:52;;;;;;;3.47;1.60;;;;;;;;;;4978477;28;20188;-79
2022/09/19 09:00:20;;;;;;;3.13;1.20;;;;;;;;;;4995126;28;20190;-79
2022/09/19 09:02:52;;;;;;;2.80;1.40;;;;;;;;;;4994304;28;20203;-79
2022/09/19 09:05:21;;;;;;;5.43;1.50;;;;;;;;;;4994263;28;20246;-79
2022/09/19 09:07:55;;;;;;;3.70;1.50;;;;;;;;;;4995285;28;20203;-79
2022/09/19 09:10:45;;;;;;;4.10;1.50;;;;;;;;;;4995800;28;20176;-79
2022/09/19 09:13:32;;;;;;;2.93;1.30;;;;;;;;;;4994110;28;20218;-79
2022/09/19 09:16:06;;;;;;;4.10;1.97;;;;;;;;;;4994118;28;20177;-79
2022/09/19 09:18:32;;;;;;;2.53;1.50;;;;;;;;;;4995420;28;20210;-79
2022/09/19 09:21:04;;;;;;;4.57;1.70;;;;;;;;;;4993585;28;20542;-79
2022/09/19 09:23:32;;;;;;;5.90;1.60;;;;;;;;;;4993909;28;20203;-79
2022/09/19 09:26:01;;;;;;;3.43;1.50;;;;;;;;;;4977564;28;20211;-79
2022/09/19 09:29:11;;;;;;;3.43;1.70;;;;;;;;;;4993491;28;20237;-79
2022/09/19 09:31:42;;;;;;;4.27;2.00;;;;;;;;;;4972793;28;20185;-80
2022/09/19 09:34:48;;;;;;;4.07;1.57;;;;;;;;;;4956619;28;20187;-80
2022/09/19 09:37:14;;;;;;;6.00;1.50;;;;;;;;;;4899556;29;20210;-79
2022/09/19 09:39:57;;;;;;;2.10;1.23;;;;;;;;;;4898800;29;20694;-79
2022/09/19 09:42:26;;;;;;;3.60;1.20;;;;;;;;;;4954643;28;20406;-79
2022/09/19 09:44:58;;;;;;;2.73;1.30;;;;;;;;;;4993260;28;20178;-79
2022/09/19 09:47:43;;;;;;;5.30;1.43;;;;;;;;;;4993411;28;20548;-79
2022/09/19 09:50:31;;;;;;;2.73;1.40;;;;;;;;;;4993111;28;20185;-79
2022/09/19 09:53:16;;;;;;;3.00;1.30;;;;;;;;;;4993321;28;20289;-79
2022/09/19 09:58:38;;;;;;;2.43;1.20;;;;;;;;;;4994745;28;20760;-81
2022/09/19 10:04:16;;;;;;;4.07;1.60;;;;;;;;;;4994364;28;20262;-81
2022/09/19 10:06:45;;;;;;;3.30;1.33;;;;;;;;;;4993565;28;20175;-80
2022/09/19 10:09:17;;;;;;;7.93;3.17;;;;;;;;;;4992687;28;20190;-84
2022/09/19 10:11:44;;;;;;;4.07;1.50;;;;;;;;;;4993412;28;20215;-80
2022/09/19 10:14:19;;;;;;;1.33;1.00;;;;;;;;;;4992615;28;20274;-81
2022/09/19 10:16:47;;;;;;;2.87;1.30;;;;;;;;;;4992911;28;20534;-81
2022/09/19 10:19:36;;;;;;;4.13;1.20;;;;;;;;;;4992929;28;20215;-79
2022/09/19 10:22:02;;;;;;;2.67;1.63;;;;;;;;;;4992612;28;20250;-81
2022/09/19 10:24:45;;;;;;;2.47;1.00;;;;;;;;;;4976629;28;20184;-79
2022/09/19 10:27:16;;;;;;;4.17;1.50;;;;;;;;;;4976597;28;20175;-79
2022/09/19 10:29:53;;;;;;;1.93;1.20;;;;;;;;;;4992230;28;20187;-80
2022/09/19 10:32:24;;;;;;;1.80;1.30;;;;;;;;;;4993158;28;20253;-79
2022/09/19 10:34:50;;;;;;;2.03;1.37;;;;;;;;;;4992606;28;20187;-80
2022/09/19 10:37:18;;;;;;;3.33;1.50;;;;;;;;;;4992758;28;20254;-80
2022/09/19 10:39:46;;;;;;;3.60;1.80;;;;;;;;;;4992226;28;20265;-80
2022/09/19 10:42:27;;;;;;;1.70;1.50;;;;;;;;;;4992390;28;20678;-80
2022/09/19 10:44:53;;;;;;;2.57;1.53;;;;;;;;;;4992854;28;20595;-80
2022/09/19 10:47:20;;;;;;;1.97;1.27;;;;;;;;;;4976565;28;20176;-80
2022/09/19 10:49:47;;;;;;;2.50;1.50;;;;;;;;;;4975784;28;20188;-80
2022/09/19 10:52:20;;;;;;;3.73;1.83;;;;;;;;;;4993940;28;20219;-80
2022/09/19 10:54:47;;;;;;;1.50;1.37;;;;;;;;;;4992427;28;20188;-80
2022/09/19 10:57:34;;;;;;;1.40;1.30;;;;;;;;;;4976543;28;20195;-80
2022/09/19 11:00:02;;;;;;;1.37;1.07;;;;;;;;;;4993086;28;20706;-80
2022/09/19 11:02:28;;;;;;;1.53;1.10;;;;;;;;;;4992332;28;20191;-80
2022/09/19 11:05:03;;;;;;;2.13;1.17;;;;;;;;;;4976172;28;20673;-80
2022/09/19 11:07:34;;;;;;;1.30;1.20;;;;;;;;;;4992614;28;20163;-81
2022/09/19 11:10:04;;;;;;;1.97;1.37;;;;;;;;;;4992350;28;20695;-81
2022/09/19 11:12:31;;;;;;;1.20;1.07;;;;;;;;;;5016288;22;20223;-84
2022/09/19 11:14:57;;;;;;;2.37;1.40;;;;;;;;;;4992345;28;20185;-84
2022/09/19 11:17:30;;;;;;;1.60;1.20;;;;;;;;;;4992550;28;20171;-84
2022/09/19 11:19:58;;;;;;;2.23;1.53;;;;;;;;;;4991549;28;20204;-83
2022/09/19 11:22:57;;;;;;;1.40;1.30;;;;;;;;;;4992484;28;20196;-83
2022/09/19 11:25:31;;;;;;;1.73;1.50;;;;;;;;;;4960264;28;20201;-84
2022/09/19 11:28:00;;;;;;;2.63;1.50;;;;;;;;;;5008731;28;20173;-83
2022/09/19 11:30:27;;;;;;;2.80;1.47;;;;;;;;;;5008510;28;20183;-83
2022/09/19 11:32:55;;;;;;;2.03;1.23;;;;;;;;;;5009013;28;20196;-83
2022/09/19 11:35:29;;;;;;;3.33;1.67;;;;;;;;;;5008838;28;20182;-83
2022/09/19 11:38:01;;;;;;;2.07;1.23;;;;;;;;;;5008528;28;20183;-83
2022/09/19 11:40:34;;;;;;;1.27;1.17;;;;;;;;;;5010749;28;20191;-83
2022/09/19 11:43:14;;;;;;;0.93;0.90;;;;;;;;;;5010506;28;20266;-83
2022/09/19 11:45:46;;;;;;;1.60;1.10;;;;;;;;;;4994025;28;20182;-83
2022/09/19 11:48:44;;;;;;;3.33;1.30;;;;;;;;;;5009057;28;20184;-83
2022/09/19 11:51:10;;;;;;;2.47;1.50;;;;;;;;;;5007808;28;20184;-86
2022/09/19 11:53:48;;;;;;;2.43;1.30;;;;;;;;;;5007775;28;20678;-86
2022/09/19 11:56:37;;;;;;;1.10;1.00;;;;;;;;;;5007500;28;20657;-86
2022/09/19 11:59:06;;;;;;;1.53;1.10;;;;;;;;;;5008032;28;20203;-85
2022/09/19 12:01:31;;;;;;;2.20;1.10;;;;;;;;;;5008695;28;20191;-84
2022/09/19 12:04:05;;;;;;;1.67;1.30;;;;;;;;;;5011808;28;20203;-84
2022/09/19 12:06:34;;;;;;;2.23;1.10;;;;;;;;;;5010860;28;20186;-84
2022/09/19 12:09:08;;;;;;;1.43;1.10;;;;;;;;;;4990991;28;20212;-84
2022/09/19 12:11:49;;;;;;;2.73;1.20;;;;;;;;;;5011016;28;20197;-84
2022/09/19 12:14:24;;;;;;;1.67;1.10;;;;;;;;;;4996564;28;20226;-84
2022/09/19 12:16:54;;;;;;;2.00;1.10;;;;;;;;;;4995621;28;20176;-84
2022/09/19 12:19:48;;;;;;;2.10;1.10;;;;;;;;;;4995132;28;20746;-84
2022/09/19 12:22:20;;;;;;;2.23;1.20;;;;;;;;;;4993031;28;20180;-84
2022/09/19 12:24:52;;;;;;;1.60;1.37;;;;;;;;;;4996929;28;20174;-86
2022/09/19 12:27:24;;;;;;;4.13;2.40;;;;;;;;;;4994352;28;20183;-86
2022/09/19 12:30:13;;;;;;;6.23;2.20;;;;;;;;;;4994048;28;20214;-85
2022/09/19 12:32:42;;;;;;;1.93;1.30;;;;;;;;;;4994042;28;20290;-84
2022/09/19 12:35:20;;;;;;;1.80;1.30;;;;;;;;;;4994318;28;20646;-83
2022/09/19 12:37:59;;;;;;;2.73;1.20;;;;;;;;;;4995010;28;20198;-83
2022/09/19 12:40:44;;;;;;;1.87;1.27;;;;;;;;;;4992964;28;20719;-82
2022/09/19 12:43:17;;;;;;;2.63;1.83;;;;;;;;;;5008735;28;20196;-85
2022/09/19 12:45:46;;;;;;;2.20;2.00;;;;;;;;;;4992287;28;20201;-85
2022/09/19 12:48:23;;;;;;;3.47;1.40;;;;;;;;;;4979552;28;20231;-86
2022/09/19 12:50:53;;;;;;;4.93;1.70;;;;;;;;;;4974754;28;20267;-85
2022/09/19 12:53:36;;;;;;;1.93;1.60;;;;;;;;;;4974368;28;20303;-86
2022/09/19 12:56:08;;;;;;;2.20;1.30;;;;;;;;;;4974827;28;20176;-86
2022/09/19 12:58:52;;;;;;;3.13;2.57;;;;;;;;;;4959016;28;20247;-86
2022/09/19 13:01:22;;;;;;;2.30;1.23;;;;;;;;;;4974302;28;20176;-86
2022/09/19 13:03:52;;;;;;;1.80;1.70;;;;;;;;;;4974189;28;20196;-86
2022/09/19 13:06:21;;;;;;;2.53;1.53;;;;;;;;;;4974250;28;20184;-86
2022/09/19 13:08:53;;;;;;;3.03;1.60;;;;;;;;;;4958069;28;20188;-85
2022/09/19 13:11:34;;;;;;;4.03;1.10;;;;;;;;;;4992011;28;20267;-86
2022/09/19 13:13:59;;;;;;;1.67;1.20;;;;;;;;;;5009022;28;20235;-86
2022/09/19 13:16:34;;;;;;;2.20;1.23;;;;;;;;;;5009322;28;20190;-86
2022/09/19 13:24:36;;;;;;;1.93;1.40;;;;;;;;;;4993072;28;20183;-86
2022/09/19 13:27:04;;;;;;;4.20;1.40;;;;;;;;;;4993486;28;20184;-86
2022/09/19 13:29:30;;;;;;;2.13;1.30;;;;;;;;;;4975983;28;20187;-85
2022/09/19 13:32:04;;;;;;;2.40;1.40;;;;;;;;;;4993358;28;20183;-85
2022/09/19 13:34:33;;;;;;;2.13;1.47;;;;;;;;;;4977274;28;20270;-85
2022/09/19 13:37:04;;;;;;;2.30;1.50;;;;;;;;;;4993079;28;20203;-86
2022/09/19 13:39:50;;;;;;;3.77;1.60;;;;;;;;;;4992709;28;20693;-86
2022/09/19 13:42:23;;;;;;;2.67;1.40;;;;;;;;;;4993298;28;20182;-85
2022/09/19 13:45:01;;;;;;;6.70;2.23;;;;;;;;;;4992822;28;20210;-86
2022/09/19 13:47:28;;;;;;;3.33;2.07;;;;;;;;;;4992206;28;20194;-86
2022/09/19 13:50:13;;;;;;;2.67;1.60;;;;;;;;;;4992468;28;20187;-85
2022/09/19 13:52:46;;;;;;;3.50;2.00;;;;;;;;;;5008993;28;20203;-86
2022/09/19 13:55:12;;;;;;;3.50;1.60;;;;;;;;;;5007326;28;20180;-86
2022/09/19 13:57:41;;;;;;;3.50;1.80;;;;;;;;;;5007813;28;20187;-86
2022/09/19 14:00:32;;;;;;;3.77;1.83;;;;;;;;;;5008156;28;20216;-86
2022/09/19 14:03:06;;;;;;;3.20;1.70;;;;;;;;;;5008980;28;20211;-86
2022/09/19 14:05:34;;;;;;;3.50;1.90;;;;;;;;;;4991035;28;20226;-86
2022/09/19 14:08:02;;;;;;;2.80;2.20;;;;;;;;;;4991475;28;20188;-86
2022/09/19 14:10:28;;;;;;;3.23;1.90;;;;;;;;;;5008390;28;20266;-86
2022/09/19 14:12:54;;;;;;;5.27;1.70;;;;;;;;;;4988621;28;20219;-85
2022/09/19 14:15:43;;;;;;;4.23;2.63;;;;;;;;;;4983436;28;20239;-86
2022/09/19 14:18:12;;;;;;;3.33;1.50;;;;;;;;;;4980201;28;20188;-86
2022/09/19 14:20:54;;;;;;;2.90;1.80;;;;;;;;;;4990045;28;20642;-86
2022/09/19 14:23:22;;;;;;;3.80;1.97;;;;;;;;;;4990732;28;20195;-86
2022/09/19 14:26:00;;;;;;;3.47;1.97;;;;;;;;;;4974148;28;20175;-86
2022/09/19 14:28:26;;;;;;;2.10;1.60;;;;;;;;;;4990653;28;20179;-86
2022/09/19 14:31:06;;;;;;;4.30;1.63;;;;;;;;;;4991219;28;20183;-86
2022/09/19 14:33:41;;;;;;;3.87;1.80;;;;;;;;;;4991410;28;20199;-86
2022/09/19 14:36:27;;;;;;;6.47;2.23;;;;;;;;;;4991706;28;20550;-86
2022/09/19 14:38:54;;;;;;;3.20;1.50;;;;;;;;;;4991894;28;20210;-86
2022/09/19 14:41:40;;;;;;;4.20;1.90;;;;;;;;;;4992066;28;20179;-85
2022/09/19 14:44:34;;;;;;;4.40;1.53;;;;;;;;;;4992113;28;20288;-85
2022/09/19 14:47:01;;;;;;;3.50;1.80;;;;;;;;;;4977429;28;20211;-85
2022/09/19 14:49:37;;;;;;;2.97;1.77;;;;;;;;;;4975960;28;20186;-85
2022/09/19 14:52:05;;;;;;;4.93;1.90;;;;;;;;;;4991967;28;20707;-85
2022/09/19 14:54:35;;;;;;;4.20;1.80;;;;;;;;;;4992103;28;20179;-85
2022/09/19 14:57:02;;;;;;;3.80;1.90;;;;;;;;;;4992341;28;20263;-85
2022/09/19 14:59:34;;;;;;;4.43;1.60;;;;;;;;;;4991988;28;20583;-85
2022/09/19 15:02:27;;;;;;;4.40;1.60;;;;;;;;;;4976316;28;20183;-85
2022/09/19 15:04:59;;;;;;;3.83;1.50;;;;;;;;;;4990219;28;20206;-85
2022/09/19 15:07:26;;;;;;;3.10;1.40;;;;;;;;;;4992493;28;20550;-84
2022/09/19 15:09:52;;;;;;;2.30;1.20;;;;;;;;;;4992032;28;20294;-86
2022/09/19 15:12:24;;;;;;;3.57;1.30;;;;;;;;;;4975841;28;20180;-85
2022/09/19 15:14:51;;;;;;;3.03;1.40;;;;;;;;;;4992792;28;20226;-84
2022/09/19 15:17:18;;;;;;;2.30;1.40;;;;;;;;;;4992663;28;20176;-84
2022/09/19 15:19:49;;;;;;;2.33;1.30;;;;;;;;;;4976388;28;20211;-84
2022/09/19 15:22:27;;;;;;;2.53;1.30;;;;;;;;;;4992829;28;20191;-84
2022/09/19 15:24:55;;;;;;;4.40;1.60;;;;;;;;;;4991965;28;20187;-85